Time;durP1;ratioP1;P1;durP2;ratioP2;P2;SDS_P1;SDS_P2;PMS_P1;PMS_P2;Temp;Humidity;BMP_temperature;BMP_pressure;BME280_temperature;BME280_humidity;BME280_pressure;Samples;Min_cycle;Max_cycle;Signal;HPM_P1;HPM_P2
2022/06/02 00:01:55;;;;;;;2.13;1.80;;;12.90;99.90;;;;;;5039947;28;20291;-78
2022/06/02 00:05:00;;;;;;;2.42;1.80;;;12.90;99.90;;;;;;5029391;28;20215;-79
2022/06/02 00:08:04;;;;;;;2.03;1.73;;;12.80;99.90;;;;;;4972511;28;20182;-79
2022/06/02 00:10:43;;;;;;;2.15;1.95;;;12.80;99.90;;;;;;5005088;28;20197;-79
2022/06/02 00:13:36;;;;;;;2.17;1.98;;;12.70;99.90;;;;;;5039551;28;20187;-81
2022/06/02 00:16:09;;;;;;;2.28;2.08;;;12.70;99.90;;;;;;5036182;28;20174;-79
2022/06/02 00:18:54;;;;;;;2.38;1.88;;;12.60;99.90;;;;;;5036689;28;20162;-77
2022/06/02 00:21:45;;;;;;;1.95;1.85;;;12.60;99.90;;;;;;5020187;28;20254;-79
2022/06/02 00:25:03;;;;;;;2.53;1.95;;;12.50;99.90;;;;;;5036275;28;20253;-77
2022/06/02 00:27:48;;;;;;;2.03;1.83;;;12.50;99.90;;;;;;5006328;28;20241;-79
2022/06/02 00:30:30;;;;;;;2.53;2.33;;;12.40;99.90;;;;;;5036301;28;20243;-78
2022/06/02 00:33:37;;;;;;;2.95;2.05;;;12.40;99.90;;;;;;5036294;28;20170;-78
2022/06/02 00:36:15;;;;;;;3.08;2.15;;;12.30;99.90;;;;;;5050234;28;20209;-79
2022/06/02 00:38:43;;;;;;;2.30;1.98;;;12.30;99.90;;;;;;5029845;28;20180;-78
2022/06/02 00:41:19;;;;;;;2.30;2.10;;;12.20;99.90;;;;;;5038527;28;20291;-76
2022/06/02 00:44:03;;;;;;;2.40;2.00;;;12.20;99.90;;;;;;5039433;28;20180;-79
2022/06/02 00:46:34;;;;;;;2.03;1.70;;;12.20;99.90;;;;;;5039027;28;20205;-79
2022/06/02 00:49:38;;;;;;;3.45;2.30;;;12.20;99.90;;;;;;5038741;28;20193;-78
2022/06/02 00:52:17;;;;;;;3.28;2.28;;;12.10;99.90;;;;;;5038556;28;20165;-79
2022/06/02 00:57:55;;;;;;;2.53;1.90;;;12.10;99.90;;;;;;5036683;28;20231;-79
2022/06/02 01:00:35;;;;;;;2.30;2.08;;;12.00;99.90;;;;;;5028325;28;20174;-78
2022/06/02 01:03:15;;;;;;;2.65;2.13;;;12.00;99.90;;;;;;5037716;28;20173;-78
2022/06/02 01:05:56;;;;;;;1.90;1.77;;;12.00;99.90;;;;;;5038772;28;20173;-78
2022/06/02 01:08:27;;;;;;;2.67;2.23;;;11.90;99.90;;;;;;5038761;28;20193;-77
2022/06/02 01:11:04;;;;;;;2.27;2.07;;;11.90;99.90;;;;;;5055306;28;20173;-79
2022/06/02 01:13:49;;;;;;;2.80;2.03;;;11.90;99.90;;;;;;5038832;28;20161;-78
2022/06/02 01:16:25;;;;;;;2.97;2.20;;;11.90;99.90;;;;;;5034971;28;20218;-79
2022/06/02 01:19:31;;;;;;;3.33;2.33;;;11.90;99.90;;;;;;5038646;28;20409;-77
2022/06/02 01:22:20;;;;;;;2.10;1.83;;;11.90;99.90;;;;;;5028053;28;20217;-78
2022/06/02 01:25:03;;;;;;;2.50;1.87;;;11.80;99.90;;;;;;5038082;28;20202;-76
2022/06/02 01:27:52;;;;;;;3.00;2.23;;;11.80;99.90;;;;;;5055221;28;20200;-77
2022/06/02 01:30:38;;;;;;;5.40;2.03;;;11.80;99.90;;;;;;5035156;28;20166;-78
2022/06/02 01:33:31;;;;;;;2.27;2.07;;;11.80;99.90;;;;;;5031274;28;20208;-78
2022/06/02 01:36:33;;;;;;;2.20;2.00;;;11.80;99.90;;;;;;5041932;28;20165;-78
2022/06/02 01:39:11;;;;;;;3.00;2.10;;;11.80;99.90;;;;;;5055262;28;20303;-77
2022/06/02 01:41:53;;;;;;;2.50;2.30;;;11.80;99.90;;;;;;5054891;28;20161;-78
2022/06/02 01:44:46;;;;;;;2.17;1.97;;;11.80;99.90;;;;;;5054916;28;20215;-77
2022/06/02 01:47:15;;;;;;;6.07;2.20;;;11.80;99.90;;;;;;5037936;28;20173;-77
2022/06/02 01:49:49;;;;;;;2.67;2.23;;;11.80;99.90;;;;;;5050644;28;20233;-77
2022/06/02 01:52:21;;;;;;;2.50;2.30;;;11.70;99.90;;;;;;5017481;28;20169;-78
2022/06/02 01:55:17;;;;;;;2.73;2.10;;;11.70;99.90;;;;;;5030800;28;20181;-77
2022/06/02 01:58:03;;;;;;;2.37;1.87;;;11.70;99.90;;;;;;5038014;28;20201;-77
2022/06/02 02:00:34;;;;;;;2.50;2.10;;;11.70;99.90;;;;;;5037561;28;20189;-77
2022/06/02 02:03:15;;;;;;;2.33;2.13;;;11.70;99.90;;;;;;5033714;28;20213;-76
2022/06/02 02:05:58;;;;;;;2.30;2.10;;;11.70;99.90;;;;;;5054538;28;20242;-77
2022/06/02 02:08:55;;;;;;;2.40;2.20;;;11.60;99.90;;;;;;5037453;28;20217;-75
2022/06/02 02:11:38;;;;;;;3.30;2.50;;;11.60;99.90;;;;;;5038145;28;20173;-78
2022/06/02 02:14:13;;;;;;;2.67;2.30;;;11.60;99.90;;;;;;5037984;28;20291;-78
2022/06/02 02:17:06;;;;;;;3.30;2.50;;;11.60;99.90;;;;;;5037652;28;20338;-78
2022/06/02 02:19:46;;;;;;;2.70;2.30;;;11.60;99.90;;;;;;5054195;28;20299;-78
2022/06/02 02:22:39;;;;;;;4.57;2.47;;;11.50;99.90;;;;;;5037912;28;20240;-78
2022/06/02 02:25:09;;;;;;;3.20;2.47;;;11.50;99.90;;;;;;5047748;28;20237;-78
2022/06/02 02:28:02;;;;;;;2.93;2.40;;;11.40;99.90;;;;;;5038868;28;20180;-77
2022/06/02 02:31:07;;;;;;;4.07;2.73;;;11.40;99.90;;;;;;5037354;28;20231;-75
2022/06/02 02:33:55;;;;;;;3.33;2.80;;;11.30;99.90;;;;;;5025633;28;20208;-77
2022/06/02 02:36:27;;;;;;;3.97;2.77;;;11.30;99.90;;;;;;5036602;28;20184;-77
2022/06/02 02:39:04;;;;;;;3.03;2.63;;;11.20;99.90;;;;;;5017602;28;20186;-74
2022/06/02 02:41:40;;;;;;;3.17;2.60;;;11.20;99.90;;;;;;5034666;28;20169;-78
2022/06/02 02:44:15;;;;;;;3.07;2.60;;;11.20;99.90;;;;;;5036980;28;20184;-77
2022/06/02 02:46:58;;;;;;;3.73;2.70;;;11.20;99.90;;;;;;5054457;28;20181;-78
2022/06/02 02:49:48;;;;;;;3.03;2.50;;;11.20;99.90;;;;;;5037468;28;20208;-78
2022/06/02 02:52:33;;;;;;;3.97;2.53;;;11.20;99.90;;;;;;5024185;28;20275;-84
2022/06/02 02:55:13;;;;;;;3.77;2.67;;;11.20;99.90;;;;;;5033832;28;20296;-86
2022/06/02 02:57:48;;;;;;;3.13;2.70;;;11.20;99.90;;;;;;5036516;28;20216;-86
2022/06/02 03:00:16;;;;;;;3.00;2.70;;;11.20;99.90;;;;;;5054366;28;20200;-85
2022/06/02 03:03:01;;;;;;;3.40;2.97;;;11.10;99.90;;;;;;5054185;28;20188;-83
2022/06/02 03:05:30;;;;;;;3.03;2.73;;;11.10;99.90;;;;;;5057566;28;20189;-84
2022/06/02 03:08:05;;;;;;;3.60;3.13;;;11.10;99.90;;;;;;5041287;28;20173;-85
2022/06/02 03:10:40;;;;;;;4.90;3.30;;;11.10;99.90;;;;;;5040962;28;20193;-85
2022/06/02 03:14:07;;;;;;;4.53;3.00;;;11.20;99.90;;;;;;5058043;28;20212;-83
2022/06/02 03:16:39;;;;;;;4.40;3.20;;;11.10;99.90;;;;;;4949774;28;20204;-86
2022/06/02 03:19:07;;;;;;;3.30;2.87;;;11.10;99.90;;;;;;5058014;28;20173;-84
2022/06/02 03:21:42;;;;;;;3.80;3.23;;;11.10;99.90;;;;;;5057487;28;20201;-85
2022/06/02 03:24:20;;;;;;;3.60;3.10;;;11.10;99.90;;;;;;5057823;28;20180;-85
2022/06/02 03:26:58;;;;;;;3.00;2.53;;;11.10;99.90;;;;;;5041755;28;20209;-81
2022/06/02 03:30:00;;;;;;;3.30;3.00;;;11.10;99.90;;;;;;5040956;28;20246;-86
2022/06/02 03:33:04;;;;;;;3.30;3.00;;;11.10;99.90;;;;;;5041214;28;20230;-85
2022/06/02 03:35:51;;;;;;;3.53;2.80;;;11.00;99.90;;;;;;5036600;28;20200;-85
2022/06/02 03:38:29;;;;;;;3.73;2.87;;;11.00;99.90;;;;;;5041893;28;20208;-83
2022/06/02 03:41:12;;;;;;;4.00;3.30;;;11.00;99.90;;;;;;5041846;28;20481;-79
2022/06/02 03:43:56;;;;;;;3.30;3.00;;;10.90;99.90;;;;;;5045115;28;20198;-85
2022/06/02 03:46:33;;;;;;;3.47;2.97;;;10.90;99.90;;;;;;5041054;28;20209;-85
2022/06/02 03:49:30;;;;;;;3.10;2.80;;;10.90;99.90;;;;;;5041114;28;20280;-84
2022/06/02 03:52:11;;;;;;;3.37;2.77;;;10.80;99.90;;;;;;5042720;28;20193;-85
2022/06/02 03:54:43;;;;;;;4.43;3.13;;;10.80;99.90;;;;;;5044488;28;20261;-81
2022/06/02 03:57:11;;;;;;;3.83;3.43;;;10.80;99.90;;;;;;5046366;28;20284;-85
2022/06/02 03:59:46;;;;;;;3.87;3.30;;;10.70;99.90;;;;;;5039263;28;20501;-86
2022/06/02 04:02:16;;;;;;;4.37;3.07;;;10.70;99.90;;;;;;5021806;28;20220;-87
2022/06/02 04:05:06;;;;;;;3.60;3.10;;;10.80;99.90;;;;;;5040236;28;20181;-85
2022/06/02 04:07:58;;;;;;;4.00;3.20;;;10.70;99.90;;;;;;5056595;28;20491;-86
2022/06/02 04:10:37;;;;;;;4.20;3.17;;;10.70;99.90;;;;;;5010109;28;20193;-82
2022/06/02 04:13:38;;;;;;;4.47;3.50;;;10.70;99.90;;;;;;5040280;28;20209;-86
2022/06/02 04:16:35;;;;;;;3.70;3.17;;;10.80;99.90;;;;;;5035845;28;20189;-86
2022/06/02 04:22:38;;;;;;;5.50;3.33;;;10.80;99.90;;;;;;5055679;28;20267;-86
2022/06/02 04:25:18;;;;;;;4.90;3.93;;;10.80;99.90;;;;;;5036908;28;20189;-86
2022/06/02 04:28:02;;;;;;;4.70;3.60;;;10.90;99.90;;;;;;5047732;28;20177;-87
2022/06/02 04:30:38;;;;;;;4.57;4.07;;;10.90;99.90;;;;;;5039602;28;20173;-85
2022/06/02 04:33:22;;;;;;;6.33;4.00;;;10.90;99.90;;;;;;5039687;28;20201;-84
2022/06/02 04:36:15;;;;;;;9.57;7.20;;;11.00;99.90;;;;;;5039539;28;20169;-86
2022/06/02 04:39:14;;;;;;;7.07;5.40;;;11.00;99.90;;;;;;5040985;28;20201;-86
2022/06/02 04:42:01;;;;;;;6.00;4.57;;;11.10;99.90;;;;;;5052121;28;20256;-86
2022/06/02 04:44:35;;;;;;;5.40;4.13;;;11.10;99.90;;;;;;5055990;28;20206;-86
2022/06/02 04:47:07;;;;;;;5.00;3.77;;;11.20;99.90;;;;;;5039553;28;20184;-82
2022/06/02 04:49:52;;;;;;;4.60;4.10;;;11.20;99.90;;;;;;5037137;28;20292;-85
2022/06/02 04:52:51;;;;;;;5.60;4.17;;;11.30;99.90;;;;;;5058539;28;20256;-86
2022/06/02 04:55:29;;;;;;;6.37;4.07;;;11.30;99.90;;;;;;5057224;28;20207;-84
2022/06/02 04:58:21;;;;;;;4.37;3.67;;;11.30;99.90;;;;;;5056011;28;20196;-86
2022/06/02 05:01:02;;;;;;;5.00;3.97;;;11.40;99.90;;;;;;5035967;28;20206;-87
2022/06/02 05:04:04;;;;;;;4.50;4.03;;;11.40;99.90;;;;;;5030165;28;20255;-86
2022/06/02 05:06:52;;;;;;;5.50;4.60;;;11.50;99.90;;;;;;5039237;28;20249;-86
2022/06/02 05:09:47;;;;;;;4.78;4.28;;;11.50;99.90;;;;;;5038725;28;20238;-85
2022/06/02 05:12:33;;;;;;;5.67;4.30;;;11.60;99.90;;;;;;5038844;28;20173;-86
2022/06/02 05:15:17;;;;;;;5.03;4.20;;;11.60;99.90;;;;;;5038910;28;20196;-86
2022/06/02 05:18:13;;;;;;;4.60;3.88;;;11.70;99.90;;;;;;5055513;28;20186;-87
2022/06/02 05:20:48;;;;;;;5.55;4.35;;;11.70;99.90;;;;;;5038799;28;20201;-80
2022/06/02 05:23:32;;;;;;;5.03;4.20;;;11.80;99.90;;;;;;5038918;28;20168;-84
2022/06/02 05:26:09;;;;;;;5.07;4.55;;;11.80;99.90;;;;;;5035293;28;20205;-87
2022/06/02 05:28:54;;;;;;;4.72;4.05;;;11.90;99.90;;;;;;5035590;28;20274;-87
2022/06/02 05:31:37;;;;;;;5.03;4.30;;;11.90;99.90;;;;;;5018873;28;20250;-87
2022/06/02 05:34:23;;;;;;;6.85;4.78;;;12.00;99.90;;;;;;5036158;28;20178;-86
2022/06/02 05:37:00;;;;;;;5.07;4.15;;;12.00;99.90;;;;;;5019591;28;20212;-86
2022/06/02 05:39:52;;;;;;;5.40;4.68;;;12.10;99.90;;;;;;5038566;28;20264;-85
2022/06/02 05:42:59;;;;;;;7.15;4.47;;;12.10;99.90;;;;;;5018507;28;20431;-87
2022/06/02 05:45:27;;;;;;;4.97;4.28;;;12.10;99.90;;;;;;5034526;28;20196;-86
2022/06/02 05:48:07;;;;;;;5.07;4.40;;;12.20;99.90;;;;;;5038192;28;20178;-81
2022/06/02 05:51:10;;;;;;;5.50;4.38;;;12.20;99.90;;;;;;5058561;28;20188;-84
2022/06/02 05:54:04;;;;;;;4.93;4.43;;;12.30;99.90;;;;;;5027644;28;20185;-84
2022/06/02 05:56:42;;;;;;;6.63;5.00;;;12.30;99.90;;;;;;5037884;28;20189;-85
2022/06/02 05:59:22;;;;;;;4.82;4.32;;;12.40;99.90;;;;;;5038288;28;20266;-87
2022/06/02 06:02:22;;;;;;;5.65;4.50;;;12.40;99.90;;;;;;5037754;28;20224;-81
2022/06/02 06:05:00;;;;;;;5.72;4.72;;;12.50;99.90;;;;;;5054500;28;20264;-83
2022/06/02 06:07:46;;;;;;;6.20;4.90;;;12.60;99.90;;;;;;5038054;28;20212;-87
2022/06/02 06:10:38;;;;;;;6.10;4.97;;;12.60;99.90;;;;;;5037914;28;20197;-83
2022/06/02 06:13:28;;;;;;;6.15;5.18;;;12.70;99.90;;;;;;5053919;28;20250;-84
2022/06/02 06:16:04;;;;;;;5.65;5.05;;;12.80;99.90;;;;;;5055032;28;20176;-85
2022/06/02 06:18:57;;;;;;;5.47;4.95;;;12.80;99.90;;;;;;5055791;28;20180;-86
2022/06/02 06:21:57;;;;;;;7.78;5.30;;;12.90;99.90;;;;;;5034528;28;20181;-85
2022/06/02 06:24:46;;;;;;;6.47;5.57;;;13.00;99.90;;;;;;5041088;28;20173;-83
2022/06/02 06:27:29;;;;;;;6.78;5.72;;;13.00;99.90;;;;;;5025453;28;20166;-85
2022/06/02 06:30:04;;;;;;;8.70;6.05;;;13.10;99.90;;;;;;5036598;28;20197;-84
2022/06/02 06:32:52;;;;;;;9.05;6.50;;;13.10;99.90;;;;;;5058868;28;20263;-86
2022/06/02 06:35:49;;;;;;;8.18;6.53;;;13.20;99.90;;;;;;5039839;28;20170;-84
2022/06/02 06:38:28;;;;;;;8.63;6.45;;;13.20;99.90;;;;;;5039866;28;20201;-88
2022/06/02 06:41:14;;;;;;;9.32;7.05;;;13.30;99.90;;;;;;5038560;28;20173;-86
2022/06/02 06:44:10;;;;;;;7.30;6.20;;;13.30;99.90;;;;;;5040499;28;20266;-84
2022/06/02 06:46:38;;;;;;;7.32;6.50;;;13.30;99.90;;;;;;5041184;28;20187;-85
2022/06/02 06:49:21;;;;;;;7.57;6.57;;;13.40;99.90;;;;;;5041548;28;20240;-83
2022/06/02 06:52:06;;;;;;;9.57;6.95;;;13.50;99.90;;;;;;5040937;28;20173;-82
2022/06/02 06:54:52;;;;;;;8.05;6.85;;;13.50;99.90;;;;;;5040941;28;20193;-86
2022/06/02 06:57:49;;;;;;;7.22;6.47;;;13.60;99.90;;;;;;5040863;28;20169;-83
2022/06/02 07:00:27;;;;;;;10.05;6.38;;;13.60;99.90;;;;;;5040795;28;20239;-83
2022/06/02 07:03:14;;;;;;;7.53;6.28;;;13.70;99.90;;;;;;5058340;28;20184;-86
2022/06/02 07:05:52;;;;;;;8.65;6.88;;;13.80;99.90;;;;;;5057827;28;20292;-84
2022/06/02 07:14:07;;;;;;;8.40;6.65;;;14.10;99.90;;;;;;5778114;22;20265;-84
2022/06/02 07:16:44;;;;;;;8.70;6.82;;;14.20;99.90;;;;;;5081565;28;20201;-87
2022/06/02 07:19:38;;;;;;;7.65;6.70;;;14.30;99.90;;;;;;5060585;28;20190;-87
2022/06/02 07:22:22;;;;;;;10.40;7.40;;;14.40;99.90;;;;;;5040531;28;20174;-84
2022/06/02 07:24:57;;;;;;;8.15;6.68;;;14.40;99.90;;;;;;5041510;28;20186;-81
2022/06/02 07:27:35;;;;;;;7.93;5.82;;;14.50;99.90;;;;;;5042927;28;20166;-87
2022/06/02 07:30:29;;;;;;;10.52;6.43;;;14.50;99.90;;;;;;5050566;28;20218;-66
2022/06/02 07:33:35;;;;;;;7.57;6.03;;;14.60;99.90;;;;;;5037641;28;20244;-86
2022/06/02 07:36:03;;;;;;;7.03;5.60;;;14.70;99.90;;;;;;5037728;28;20247;-88
2022/06/02 07:39:07;;;;;;;6.55;5.85;;;14.80;99.90;;;;;;5034537;28;20187;-87
2022/06/02 07:41:53;;;;;;;7.07;5.75;;;14.80;99.90;;;;;;5029753;28;20201;-86
2022/06/02 07:44:36;;;;;;;6.07;5.47;;;14.90;99.90;;;;;;5037323;28;20181;-85
2022/06/02 07:47:26;;;;;;;7.18;5.80;;;15.00;99.90;;;;;;5037259;28;20190;-87
2022/06/02 07:49:59;;;;;;;5.13;4.63;;;15.10;99.90;;;;;;5035818;28;20198;-82
2022/06/02 07:52:57;;;;;;;5.90;5.15;;;15.20;99.90;;;;;;5037026;28;20202;-81
2022/06/02 07:55:49;;;;;;;5.22;4.40;;;15.20;99.90;;;;;;5037282;28;20170;-85
2022/06/02 07:58:26;;;;;;;6.15;4.80;;;15.30;99.90;;;;;;5030006;28;20206;-86
2022/06/02 08:01:17;;;;;;;5.82;4.53;;;15.40;99.90;;;;;;5037212;28;20177;-83
2022/06/02 08:03:48;;;;;;;5.68;3.97;;;15.50;99.90;;;;;;5036962;28;20248;-87
2022/06/02 08:06:47;;;;;;;5.50;4.47;;;15.60;99.90;;;;;;5035815;28;20190;-82
2022/06/02 08:09:49;;;;;;;5.68;3.83;;;15.60;99.90;;;;;;5031092;28;20243;-84
2022/06/02 08:12:33;;;;;;;4.72;3.72;;;15.70;99.90;;;;;;5025625;28;20200;-84
2022/06/02 08:15:13;;;;;;;4.35;3.60;;;15.80;99.90;;;;;;5020091;28;20217;-85
2022/06/02 08:18:00;;;;;;;4.53;3.80;;;15.90;99.90;;;;;;5056409;28;20184;-86
2022/06/02 08:20:47;;;;;;;7.07;4.10;;;15.90;99.90;;;;;;5059536;28;20220;-86
2022/06/02 08:23:27;;;;;;;5.45;4.03;;;16.00;99.90;;;;;;5059962;28;20180;-88
2022/06/02 08:26:22;;;;;;;5.32;3.97;;;16.10;99.90;;;;;;5075991;28;20223;-86
2022/06/02 08:28:47;;;;;;;5.25;2.92;;;16.10;99.90;;;;;;5056421;28;20197;-79
2022/06/02 08:31:32;;;;;;;3.90;3.50;;;16.20;99.90;;;;;;5067430;28;20208;-68
2022/06/02 08:34:06;;;;;;;3.50;3.00;;;16.20;99.90;;;;;;5082249;28;20186;-87
2022/06/02 08:37:09;;;;;;;3.78;3.20;;;16.30;99.90;;;;;;5073929;28;20164;-87
2022/06/02 08:39:35;;;;;;;3.80;3.00;;;16.40;99.90;;;;;;5070654;28;20178;-87
2022/06/02 08:42:09;;;;;;;4.65;3.20;;;16.40;99.90;;;;;;5037860;28;20186;-86
2022/06/02 08:44:59;;;;;;;3.20;2.90;;;16.50;99.90;;;;;;5070952;28;20259;-85
2022/06/02 08:47:47;;;;;;;3.85;2.97;;;16.60;99.90;;;;;;5063874;28;20169;-86
2022/06/02 08:50:46;;;;;;;2.95;2.58;;;16.60;99.90;;;;;;5073293;28;20274;-86
2022/06/02 08:53:20;;;;;;;3.38;2.47;;;16.60;99.90;;;;;;5073509;28;20218;-87
2022/06/02 08:56:14;;;;;;;2.63;2.30;;;16.60;99.90;;;;;;5073246;28;20264;-85
2022/06/02 08:59:15;;;;;;;2.78;2.38;;;16.60;99.90;;;;;;5070181;28;20200;-88
2022/06/02 09:01:54;;;;;;;4.07;2.88;;;16.70;99.90;;;;;;5060187;28;20174;-86
2022/06/02 09:04:47;;;;;;;4.38;3.00;;;16.80;99.90;;;;;;5055329;28;20181;-85
2022/06/02 09:07:22;;;;;;;2.92;2.63;;;16.90;99.90;;;;;;5072745;28;20166;-87
2022/06/02 09:10:01;;;;;;;2.90;2.30;;;16.90;99.90;;;;;;5055460;28;20189;-86
2022/06/02 09:12:29;;;;;;;5.00;2.50;;;17.00;99.90;;;;;;5064798;28;20177;-82
2022/06/02 09:15:33;;;;;;;2.40;2.17;;;17.10;99.90;;;;;;5055986;28;20169;-87
2022/06/02 09:18:08;;;;;;;6.57;2.50;;;17.10;99.90;;;;;;5052156;28;20170;-82
2022/06/02 09:20:52;;;;;;;3.83;2.42;;;17.20;99.90;;;;;;5036877;28;20273;-85
2022/06/02 09:23:46;;;;;;;3.47;2.28;;;17.30;99.90;;;;;;5047354;28;20202;-89
2022/06/02 09:26:33;;;;;;;2.97;2.28;;;17.40;99.90;;;;;;5032605;28;20171;-83
2022/06/02 09:29:21;;;;;;;2.60;1.90;;;17.40;99.90;;;;;;5031907;28;20210;-86
2022/06/02 09:31:51;;;;;;;2.35;1.92;;;17.50;99.90;;;;;;5041953;28;20174;-82
2022/06/02 09:34:49;;;;;;;1.98;1.75;;;17.60;99.90;;;;;;5052302;28;20201;-87
2022/06/02 09:37:33;;;;;;;2.00;1.58;;;17.60;99.90;;;;;;5026531;28;20182;-84
2022/06/02 09:40:11;;;;;;;2.30;1.73;;;17.70;99.90;;;;;;5035179;28;20201;-89
2022/06/02 09:42:42;;;;;;;1.73;1.55;;;17.80;99.90;;;;;;5035382;28;20263;-81
2022/06/02 09:45:27;;;;;;;2.35;1.75;;;17.90;99.90;;;;;;5049390;28;20212;-90
2022/06/02 09:48:38;;;;;;;1.92;1.70;;;18.00;99.90;;;;;;5035244;28;20179;-87
2022/06/02 09:51:41;;;;;;;2.15;1.75;;;18.00;99.90;;;;;;5004307;28;20540;-83
2022/06/02 09:54:38;;;;;;;1.85;1.70;;;18.10;99.90;;;;;;5035762;28;20180;-81
2022/06/02 10:00:46;;;;;;;1.98;1.77;;;18.30;99.90;;;;;;5016543;28;20201;-86
2022/06/02 10:03:36;;;;;;;2.97;1.90;;;18.30;99.90;;;;;;5015267;28;20485;-90
2022/06/02 10:06:20;;;;;;;2.47;1.60;;;18.40;99.90;;;;;;5015262;28;20185;-91
2022/06/02 10:09:23;;;;;;;3.05;1.70;;;18.50;99.90;;;;;;5050854;28;20210;-85
2022/06/02 10:11:55;;;;;;;1.30;1.20;;;18.60;99.90;;;;;;5035933;28;20229;-82
2022/06/02 10:14:42;;;;;;;2.55;1.85;;;18.70;99.90;;;;;;5013980;28;20205;-86
2022/06/02 10:17:19;;;;;;;1.63;1.50;;;18.80;99.90;;;;;;5015162;28;20159;-83
2022/06/02 10:20:08;;;;;;;1.98;1.50;;;18.90;99.90;;;;;;5029736;28;20181;-88
2022/06/02 10:22:46;;;;;;;1.70;1.48;;;19.00;99.90;;;;;;5050469;28;20219;-87
2022/06/02 10:25:36;;;;;;;3.30;1.88;;;19.10;99.90;;;;;;5066157;28;20258;-83
2022/06/02 10:28:17;;;;;;;1.67;1.52;;;19.20;99.90;;;;;;5070186;28;20189;-90
2022/06/02 10:31:01;;;;;;;2.13;1.52;;;19.30;99.90;;;;;;5055237;28;20192;-88
2022/06/02 10:33:48;;;;;;;1.45;1.33;;;19.50;99.90;;;;;;5071342;28;20232;-87
2022/06/02 10:36:35;;;;;;;1.90;1.40;;;19.60;99.90;;;;;;5055711;28;20219;-87
2022/06/02 10:39:19;;;;;;;2.60;1.38;;;19.80;99.90;;;;;;5071287;28;20184;-82
2022/06/02 10:42:25;;;;;;;1.25;1.08;;;20.10;99.90;;;;;;5070954;28;20173;-84
2022/06/02 10:44:57;;;;;;;2.65;1.20;;;20.40;99.90;;;;;;5054980;28;20185;-80
2022/06/02 10:47:59;;;;;;;1.40;1.30;;;20.60;99.90;;;;;;5070835;28;20414;-89
2022/06/02 10:50:27;;;;;;;1.60;1.00;;;20.90;99.90;;;;;;5072234;28;20200;-89
2022/06/02 10:53:31;;;;;;;1.08;0.90;;;21.20;99.90;;;;;;5071953;28;20185;-78
2022/06/02 10:56:47;;;;;;;1.70;1.35;;;21.40;99.90;;;;;;5072010;28;20180;-90
2022/06/02 10:59:34;;;;;;;1.10;1.00;;;21.60;98.20;;;;;;5038969;28;20201;-83
2022/06/02 11:02:18;;;;;;;1.30;1.00;;;21.80;99.90;;;;;;5060060;28;20173;-90
2022/06/02 11:05:06;;;;;;;3.25;1.27;;;21.90;99.90;;;;;;5060757;28;20153;-86
2022/06/02 11:07:52;;;;;;;0.90;0.70;;;22.10;99.90;;;;;;5054451;28;20170;-86
2022/06/02 11:10:25;;;;;;;0.95;0.85;;;22.30;99.90;;;;;;5054244;28;20201;-88
2022/06/02 11:13:15;;;;;;;1.30;1.00;;;22.50;99.90;;;;;;5054651;28;20188;-87
2022/06/02 11:16:02;;;;;;;1.52;0.93;;;22.70;99.90;;;;;;5051991;28;20181;-87
2022/06/02 11:19:02;;;;;;;1.20;0.90;;;22.90;99.90;;;;;;5051565;28;20253;-87
2022/06/02 11:21:51;;;;;;;1.55;0.93;;;23.00;99.90;;;;;;5054855;28;20212;-88
2022/06/02 11:24:57;;;;;;;1.00;0.80;;;23.20;98.50;;;;;;5070472;28;20252;-81
2022/06/02 11:27:42;;;;;;;1.15;0.70;;;23.30;98.40;;;;;;5058030;28;20189;-84
2022/06/02 11:30:41;;;;;;;1.10;0.80;;;23.30;98.80;;;;;;5058158;28;20197;-83
2022/06/02 11:33:15;;;;;;;1.48;0.80;;;23.30;97.50;;;;;;5053937;28;20161;-87
2022/06/02 11:36:27;;;;;;;1.67;0.77;;;23.40;98.70;;;;;;5059459;28;20179;-86
2022/06/02 11:38:58;;;;;;;1.30;0.80;;;23.40;96.80;;;;;;5057934;28;20193;-90
2022/06/02 11:41:30;;;;;;;0.70;0.65;;;23.60;99.50;;;;;;5057352;28;20177;-89
2022/06/02 11:44:04;;;;;;;0.80;0.80;;;23.60;98.60;;;;;;5058094;28;20223;-89
2022/06/02 11:46:42;;;;;;;0.80;0.63;;;23.60;96.20;;;;;;5060571;28;20173;-84
2022/06/02 11:49:40;;;;;;;1.52;0.73;;;23.60;97.00;;;;;;5058447;28;20398;-87
2022/06/02 11:52:31;;;;;;;1.20;0.90;;;23.60;94.50;;;;;;5058342;28;20282;-86
2022/06/02 11:55:15;;;;;;;0.85;0.80;;;23.60;95.00;;;;;;5055081;28;20178;-85
2022/06/02 11:57:50;;;;;;;1.52;0.90;;;23.60;91.70;;;;;;5074392;28;20173;-89
2022/06/02 12:00:27;;;;;;;0.82;0.70;;;23.70;96.30;;;;;;5058933;28;20184;-89
2022/06/02 12:03:34;;;;;;;0.70;0.70;;;23.90;94.50;;;;;;5058726;28;20169;-92
2022/06/02 12:06:37;;;;;;;1.27;0.80;;;24.10;93.10;;;;;;5045421;28;20185;-84
2022/06/02 12:09:39;;;;;;;1.48;1.00;;;24.30;86.90;;;;;;5056735;28;20192;-89
2022/06/02 12:12:46;;;;;;;1.13;0.90;;;24.50;88.20;;;;;;5057451;28;20165;-85
2022/06/02 12:15:31;;;;;;;0.90;0.60;;;24.60;84.40;;;;;;5073821;28;20165;-89
2022/06/02 12:18:27;;;;;;;0.75;0.70;;;24.70;90.70;;;;;;5073671;28;20184;-85
2022/06/02 12:21:26;;;;;;;1.20;0.90;;;24.80;88.90;;;;;;5074147;28;20185;-88
2022/06/02 12:24:25;;;;;;;0.73;0.60;;;24.80;79.80;;;;;;5056629;28;20204;-84
2022/06/02 12:27:03;;;;;;;0.80;0.60;;;24.90;87.00;;;;;;5057063;28;20166;-90
2022/06/02 12:29:37;;;;;;;1.23;0.90;;;25.00;86.50;;;;;;5057867;28;20212;-83
2022/06/02 12:32:18;;;;;;;1.85;1.13;;;25.20;86.90;;;;;;5061095;28;20169;-89
2022/06/02 12:35:22;;;;;;;0.98;0.75;;;25.30;83.40;;;;;;5061169;28;20199;-81
2022/06/02 12:37:54;;;;;;;1.10;0.68;;;25.40;84.10;;;;;;5031423;28;20195;-88
2022/06/02 12:40:25;;;;;;;0.60;0.60;;;25.50;84.80;;;;;;5073701;28;20183;-91
2022/06/02 12:43:19;;;;;;;1.17;1.00;;;25.60;87.70;;;;;;5073384;28;20187;-84
2022/06/02 12:46:07;;;;;;;1.15;0.80;;;25.70;80.80;;;;;;5057250;28;20211;-86
2022/06/02 12:48:57;;;;;;;1.38;0.98;;;25.70;81.70;;;;;;5037009;28;20196;-86
2022/06/02 12:51:42;;;;;;;1.05;0.95;;;25.70;79.50;;;;;;5036453;28;20247;-86
2022/06/02 12:54:44;;;;;;;1.90;0.90;;;25.80;75.40;;;;;;5037166;28;20173;-86
2022/06/02 12:57:30;;;;;;;1.90;0.80;;;25.70;74.00;;;;;;5056246;28;20268;-89
2022/06/02 13:00:02;;;;;;;0.90;0.80;;;25.80;76.30;;;;;;5055987;28;20164;-88
2022/06/02 13:02:52;;;;;;;1.02;0.80;;;25.80;76.70;;;;;;5056210;28;20263;-88
2022/06/02 13:05:36;;;;;;;1.15;0.77;;;25.80;77.60;;;;;;5055824;28;20197;-87
2022/06/02 13:08:20;;;;;;;0.80;0.70;;;25.80;80.60;;;;;;5056090;28;20165;-88
2022/06/02 13:10:51;;;;;;;1.15;1.00;;;25.90;76.50;;;;;;5055395;28;20239;-88
2022/06/02 13:13:20;;;;;;;0.90;0.80;;;25.90;72.30;;;;;;5055852;28;20239;-88
2022/06/02 13:15:57;;;;;;;2.15;0.80;;;25.90;73.90;;;;;;5055905;28;20200;-88
2022/06/02 13:18:35;;;;;;;1.35;0.85;;;25.90;74.70;;;;;;5074129;28;20215;-88
2022/06/02 13:21:41;;;;;;;2.45;0.90;;;26.00;77.60;;;;;;5055956;28;20216;-84
2022/06/02 13:24:15;;;;;;;1.25;0.80;;;26.10;73.40;;;;;;5056224;28;20270;-92
2022/06/02 13:26:55;;;;;;;0.80;0.80;;;26.20;72.70;;;;;;5057207;28;20200;-86
2022/06/02 13:29:48;;;;;;;0.90;0.70;;;26.40;69.30;;;;;;5056070;28;20197;-90
2022/06/02 13:32:38;;;;;;;0.85;0.70;;;26.40;70.10;;;;;;5057188;28;20200;-90
2022/06/02 13:35:49;;;;;;;0.70;0.70;;;26.50;71.60;;;;;;5056823;28;20191;-88
2022/06/02 13:38:48;;;;;;;0.80;0.60;;;26.60;67.70;;;;;;5055784;28;20211;-86
2022/06/02 13:41:37;;;;;;;1.20;0.77;;;26.60;67.80;;;;;;5055874;28;20166;-92
2022/06/02 13:44:42;;;;;;;1.50;0.77;;;26.70;71.80;;;;;;5055400;28;20202;-83
2022/06/02 13:47:08;;;;;;;1.35;0.70;;;26.80;67.90;;;;;;5055926;28;20460;-88
2022/06/02 13:49:39;;;;;;;1.13;0.98;;;26.70;71.90;;;;;;5055637;28;20229;-84
2022/06/02 13:52:42;;;;;;;1.10;1.00;;;26.70;69.60;;;;;;5055963;28;20178;-92
2022/06/02 13:58:37;;;;;;;1.08;0.90;;;26.90;66.80;;;;;;5047536;28;20188;-90
2022/06/02 14:01:37;;;;;;;0.75;0.70;;;26.90;68.60;;;;;;5072056;28;20193;-91
2022/06/02 14:04:20;;;;;;;0.90;0.70;;;27.00;68.00;;;;;;5072486;28;20182;-89
2022/06/02 14:06:59;;;;;;;1.00;0.80;;;27.00;67.20;;;;;;5072159;28;20208;-88
2022/06/02 14:09:35;;;;;;;1.00;0.73;;;27.20;67.80;;;;;;5061905;28;20189;-85
2022/06/02 14:12:07;;;;;;;0.95;0.80;;;27.20;68.50;;;;;;5056713;28;20250;-87
2022/06/02 14:14:45;;;;;;;0.98;0.70;;;27.30;66.70;;;;;;5058654;28;20325;-90
2022/06/02 14:17:20;;;;;;;1.25;0.70;;;27.30;65.40;;;;;;5055070;28;20221;-89
2022/06/02 14:20:16;;;;;;;0.80;0.80;;;27.30;65.40;;;;;;5055292;28;20188;-84
2022/06/02 14:22:44;;;;;;;0.60;0.60;;;27.30;63.10;;;;;;5055578;28;20177;-90
2022/06/02 14:25:41;;;;;;;0.82;0.80;;;27.40;65.60;;;;;;5055512;28;20173;-81
2022/06/02 14:28:25;;;;;;;0.60;0.60;;;27.50;61.90;;;;;;5056170;28;20204;-83
2022/06/02 14:31:04;;;;;;;1.75;0.90;;;27.50;60.70;;;;;;5056307;28;20188;-88
2022/06/02 14:33:48;;;;;;;0.88;0.80;;;27.60;63.00;;;;;;5054897;28;20188;-87
2022/06/02 14:36:35;;;;;;;0.82;0.77;;;27.70;62.10;;;;;;5051815;28;20183;-88
2022/06/02 14:39:18;;;;;;;0.93;0.70;;;27.80;60.50;;;;;;5044677;28;20181;-84